| time (UTC) | temp F | wind direction | speed MPH | gust MPH | rain 1hr in | rain 24hr in | rain mn in | humidity % | barometer mb |
| 20260509101013 | 71 | 171 | 8.0 | 19.0 | 0.00 | 0.00 | 0.00 | 94 | 1005.4 |
| 20260509100512 | 71 | 158 | 9.0 | 19.0 | 0.00 | 0.00 | 0.00 | 94 | 1005.5 |
| 20260509100012 | 71 | 149 | 8.0 | 18.0 | 0.00 | 0.00 | 0.00 | 94 | 1005.7 |
| 20260509095510 | 71 | 177 | 6.0 | 13.0 | 0.00 | 0.00 | 0.00 | 94 | 1005.8 |
| 20260509095009 | 71 | 166 | 6.0 | 13.0 | 0.00 | 0.00 | 0.00 | 94 | 1006.1 |
| 20260509094508 | 71 | 222 | 7.0 | 13.0 | 0.00 | 0.00 | 0.00 | 94 | 1006.4 |
| 20260509094006 | 71 | 157 | 7.0 | 12.0 | 0.00 | 0.00 | 0.00 | 94 | 1006.5 |
| 20260509093505 | 71 | 200 | 6.0 | 11.0 | 0.00 | 0.00 | 0.00 | 94 | 1007.0 |
| 20260509093004 | 71 | 187 | 4.0 | 8.0 | 0.00 | 0.00 | 0.00 | 94 | 1007.4 |
| 20260509092503 | 71 | 187 | 3.0 | 8.0 | 0.00 | 0.00 | 0.00 | 94 | 1007.6 |
| 20260509092003 | 70 | 187 | 4.0 | 8.0 | 0.00 | 0.00 | 0.00 | 94 | 1007.6 |
| 20260509091502 | 70 | 185 | 3.0 | 8.0 | 0.00 | 0.00 | 0.00 | 94 | 1007.7 |
| 20260509091001 | 70 | 184 | 3.0 | 8.0 | 0.00 | 0.00 | 0.00 | 94 | 1008.0 |
| 20260509090601 | 70 | 183 | 2.0 | 6.0 | 0.00 | 0.00 | 0.00 | 94 | 1008.0 |
| 20260509090002 | 70 | 183 | 3.0 | 6.0 | 0.00 | 0.00 | 0.00 | 93 | 1008.0 |
| 20260509085559 | 70 | 183 | 3.0 | 6.0 | 0.00 | 0.00 | 0.00 | 93 | 1008.1 |
| 20260509085101 | 70 | 183 | 2.0 | 6.0 | 0.00 | 0.00 | 0.00 | 93 | 1008.2 |
| 20260509084604 | 70 | 183 | 2.0 | 5.0 | 0.00 | 0.00 | 0.00 | 93 | 1008.4 |
| 20260509084101 | 70 | 183 | 1.0 | 4.0 | 0.00 | 0.00 | 0.00 | 93 | 1008.4 |
| 20260509083559 | 70 | 183 | 1.0 | 3.0 | 0.00 | 0.00 | 0.00 | 93 | 1008.3 |
| 20260509083101 | 70 | 183 | 1.0 | 2.0 | 0.00 | 0.00 | 0.00 | 93 | 1008.4 |
| 20260509082602 | 70 | 183 | 0.0 | 0.0 | 0.00 | 0.00 | 0.00 | 93 | 1008.5 |
| 20260509082100 | 70 | 183 | 0.0 | 0.0 | 0.00 | 0.00 | 0.00 | 93 | 1008.5 |
| 20260509081559 | 70 | 183 | 0.0 | 0.0 | 0.00 | 0.00 | 0.00 | 93 | 1008.6 |
| 20260509081058 | 70 | 183 | 0.0 | 1.0 | 0.00 | 0.00 | 0.00 | 93 | 1008.6 |
| 20260509080558 | 70 | 183 | 0.0 | 2.0 | 0.00 | 0.00 | 0.00 | 93 | 1008.7 |
| 20260509075558 | 70 | 183 | 0.0 | 1.0 | 0.00 | 0.00 | 0.00 | 92 | 1008.8 |
| 20260509075101 | 70 | 183 | 0.0 | 4.0 | 0.00 | 0.00 | 0.00 | 92 | 1009.1 |
| 20260509074601 | 70 | 183 | 0.0 | 4.0 | 0.00 | 0.00 | 0.00 | 92 | 1009.2 |
| 20260509074058 | 70 | 183 | 0.0 | 5.0 | 0.00 | 0.00 | 0.00 | 92 | 1009.2 |
| 20260509073556 | 70 | 183 | 1.0 | 5.0 | 0.00 | 0.00 | 0.00 | 92 | 1009.1 |
| 20260509073056 | 70 | 183 | 1.0 | 4.0 | 0.00 | 0.00 | 0.00 | 92 | 1008.9 |
| 20260509072558 | 70 | 183 | 0.0 | 1.0 | 0.00 | 0.00 | 0.00 | 91 | 1009.0 |
| 20260509072056 | 70 | 183 | 0.0 | 1.0 | 0.00 | 0.00 | 0.00 | 91 | 1009.1 |
| 20260509071555 | 70 | 183 | 0.0 | 1.0 | 0.00 | 0.00 | 0.00 | 91 | 1009.0 |
| 20260509071055 | 70 | 183 | 0.0 | 2.0 | 0.00 | 0.00 | 0.00 | 91 | 1009.0 |
| 20260509070555 | 70 | 183 | 0.0 | 4.0 | 0.00 | 0.00 | 0.00 | 91 | 1008.8 |
| 20260509070054 | 71 | 183 | 1.0 | 4.0 | 0.00 | 0.00 | 0.00 | 91 | 1008.6 |
| 20260509065554 | 71 | 183 | 0.0 | 2.0 | 0.00 | 0.00 | 0.00 | 91 | 1008.7 |
| 20260509065054 | 71 | 183 | 0.0 | 2.0 | 0.00 | 0.00 | 0.00 | 91 | 1008.7 |
| 20260509064552 | 71 | 183 | 0.0 | 4.0 | 0.00 | 0.00 | 0.00 | 91 | 1008.6 |
| 20260509064051 | 71 | 183 | 1.0 | 5.0 | 0.00 | 0.00 | 0.00 | 91 | 1008.4 |
| 20260509063550 | 71 | 183 | 1.0 | 5.0 | 0.00 | 0.00 | 0.00 | 91 | 1008.3 |
| 20260509063101 | 71 | 183 | 1.0 | 6.0 | 0.00 | 0.00 | 0.00 | 91 | 1008.3 |
| 20260509062550 | 71 | 183 | 3.0 | 6.0 | 0.00 | 0.00 | 0.00 | 90 | 1008.1 |
| 20260509062050 | 71 | 183 | 2.0 | 5.0 | 0.00 | 0.00 | 0.00 | 90 | 1008.1 |
| 20260509061549 | 71 | 183 | 2.0 | 7.0 | 0.00 | 0.00 | 0.00 | 90 | 1008.1 |
| 20260509061049 | 71 | 183 | 3.0 | 7.0 | 0.00 | 0.00 | 0.00 | 90 | 1008.1 |
| 20260509060548 | 71 | 183 | 3.0 | 8.0 | 0.00 | 0.00 | 0.00 | 90 | 1008.1 |
| 20260509060055 | 71 | 183 | 4.0 | 9.0 | 0.00 | 0.00 | 0.00 | 90 | 1008.1 |
| 20260509055548 | 71 | 186 | 5.0 | 9.0 | 0.00 | 0.00 | 0.00 | 90 | 1008.1 |
| 20260509055046 | 72 | 196 | 4.0 | 7.0 | 0.00 | 0.00 | 0.00 | 90 | 1008.4 |
| 20260509054546 | 72 | 197 | 3.0 | 7.0 | 0.00 | 0.00 | 0.00 | 90 | 1008.7 |
| 20260509054043 | 72 | 197 | 3.0 | 6.0 | 0.00 | 0.00 | 0.00 | 89 | 1008.8 |
| 20260509053542 | 72 | 198 | 3.0 | 5.0 | 0.00 | 0.00 | 0.00 | 89 | 1008.9 |
| 20260509053106 | 72 | 198 | 1.0 | 3.0 | 0.00 | 0.00 | 0.00 | 89 | 1009.0 |
| 20260509052540 | 72 | 198 | 0.0 | 2.0 | 0.00 | 0.00 | 0.00 | 89 | 1009.2 |
| 20260509052038 | 72 | 198 | 1.0 | 2.0 | 0.00 | 0.00 | 0.00 | 89 | 1009.1 |
| 20260509051537 | 72 | 198 | 0.0 | 0.0 | 0.00 | 0.00 | 0.00 | 88 | 1009.0 |
| 20260509051036 | 72 | 198 | 0.0 | 0.0 | 0.00 | 0.00 | 0.00 | 88 | 1009.0 |
| 20260509050535 | 72 | 198 | 0.0 | 0.0 | 0.00 | 0.00 | 0.00 | 88 | 1008.9 |
| 20260509050032 | 72 | 198 | 0.0 | 0.0 | 0.00 | 0.00 | 0.00 | 88 | 1009.0 |
| 20260509045533 | 72 | 198 | 0.0 | 0.0 | 0.00 | 0.00 | 0.00 | 88 | 1009.0 |
| 20260509045032 | 72 | 198 | 0.0 | 0.0 | 0.00 | 0.00 | 0.00 | 88 | 1008.9 |
| 20260509044534 | 72 | 198 | 0.0 | 0.0 | 0.00 | 0.00 | 0.00 | 88 | 1008.9 |
| 20260509044033 | 72 | 198 | 0.0 | 0.0 | 0.00 | 0.00 | 0.00 | 88 | 1008.8 |
| 20260509043532 | 72 | 198 | 0.0 | 0.0 | 0.00 | 0.00 | 0.00 | 88 | 1008.7 |
| 20260509043032 | 72 | 198 | 0.0 | 0.0 | 0.00 | 0.00 | 0.00 | 87 | 1008.6 |
| 20260509042532 | 72 | 198 | 0.0 | 0.0 | 0.00 | 0.00 | 0.00 | 87 | 1008.5 |
| 20260509042034 | 72 | 198 | 0.0 | 0.0 | 0.00 | 0.00 | 0.00 | 87 | 1008.4 |
| 20260509041540 | 72 | 198 | 0.0 | 1.0 | 0.00 | 0.00 | 0.00 | 87 | 1008.5 |
| 20260509041034 | 72 | 198 | 0.0 | 1.0 | 0.00 | 0.00 | 0.00 | 87 | 1008.4 |
| 20260509040531 | 72 | 198 | 0.0 | 2.0 | 0.00 | 0.00 | 0.00 | 87 | 1008.4 |
| 20260509040032 | 72 | 198 | 0.0 | 4.0 | 0.00 | 0.00 | 0.00 | 87 | 1008.3 |
| 20260509035532 | 72 | 198 | 0.0 | 5.0 | 0.00 | 0.00 | 0.00 | 86 | 1008.1 |
| 20260509035031 | 72 | 198 | 3.0 | 5.0 | 0.00 | 0.00 | 0.00 | 86 | 1007.9 |
| 20260509034531 | 73 | 198 | 3.0 | 5.0 | 0.00 | 0.00 | 0.00 | 86 | 1008.0 |
| 20260509034030 | 73 | 198 | 1.0 | 4.0 | 0.00 | 0.00 | 0.00 | 86 | 1008.1 |
| 20260509033530 | 73 | 198 | 0.0 | 0.0 | 0.00 | 0.00 | 0.00 | 86 | 1008.2 |
| 20260509033030 | 73 | 198 | 0.0 | 0.0 | 0.00 | 0.00 | 0.00 | 86 | 1008.2 |
| 20260509032530 | 73 | 198 | 0.0 | 0.0 | 0.00 | 0.00 | 0.00 | 86 | 1008.2 |
| 20260509032030 | 73 | 198 | 0.0 | 0.0 | 0.00 | 0.00 | 0.00 | 86 | 1008.2 |
| 20260509031531 | 73 | 198 | 0.0 | 0.0 | 0.00 | 0.00 | 0.00 | 86 | 1008.1 |
| 20260509031030 | 73 | 198 | 0.0 | 0.0 | 0.00 | 0.00 | 0.00 | 86 | 1008.1 |
| 20260509030530 | 73 | 198 | 0.0 | 0.0 | 0.00 | 0.00 | 0.00 | 85 | 1008.0 |
| 20260509030031 | 73 | 198 | 0.0 | 0.0 | 0.00 | 0.00 | 0.00 | 85 | 1008.0 |
| 20260509025529 | 73 | 198 | 0.0 | 0.0 | 0.00 | 0.00 | 0.00 | 85 | 1007.8 |
| 20260509025029 | 73 | 198 | 0.0 | 0.0 | 0.00 | 0.00 | 0.00 | 85 | 1007.7 |
| 20260509024529 | 73 | 198 | 0.0 | 0.0 | 0.00 | 0.00 | 0.00 | 85 | 1007.5 |
| 20260509024033 | 73 | 198 | 0.0 | 0.0 | 0.00 | 0.00 | 0.00 | 84 | 1007.4 |
| 20260509023529 | 73 | 198 | 0.0 | 0.0 | 0.00 | 0.00 | 0.00 | 85 | 1007.5 |
| 20260509023029 | 74 | 198 | 0.0 | 0.0 | 0.00 | 0.00 | 0.00 | 84 | 1007.3 |
| 20260509022528 | 74 | 198 | 0.0 | 0.0 | 0.00 | 0.00 | 0.00 | 84 | 1007.3 |
| 20260509022029 | 74 | 198 | 0.0 | 0.0 | 0.00 | 0.00 | 0.00 | 84 | 1007.4 |
| 20260509021529 | 74 | 198 | 0.0 | 0.0 | 0.00 | 0.00 | 0.00 | 84 | 1007.3 |
| 20260509021028 | 74 | 198 | 0.0 | 1.0 | 0.00 | 0.00 | 0.00 | 83 | 1007.3 |
| 20260509020529 | 74 | 198 | 0.0 | 1.0 | 0.00 | 0.00 | 0.00 | 83 | 1007.3 |
| 20260509020029 | 74 | 198 | 0.0 | 0.0 | 0.00 | 0.00 | 0.00 | 83 | 1007.1 |
| 20260509015528 | 74 | 198 | 0.0 | 1.0 | 0.00 | 0.00 | 0.00 | 83 | 1007.2 |
| 20260509015027 | 74 | 198 | 0.0 | 4.0 | 0.00 | 0.00 | 0.00 | 83 | 1007.1 |
| 20260509014527 | 74 | 198 | 0.0 | 4.0 | 0.00 | 0.00 | 0.00 | 83 | 1007.0 |
| 20260509014030 | 74 | 198 | 1.0 | 7.0 | 0.00 | 0.00 | 0.00 | 83 | 1006.9 |
| 20260509013527 | 74 | 198 | 2.0 | 7.0 | 0.00 | 0.00 | 0.00 | 83 | 1006.9 |
| 20260509013029 | 74 | 90 | 0.0 | 4.0 | 0.00 | 0.00 | 0.00 | 82 | 1006.8 |
| 20260509012529 | 74 | 90 | 0.0 | 4.0 | 0.00 | 0.00 | 0.00 | 82 | 1006.7 |
| 20260509012027 | 74 | 90 | 1.0 | 4.0 | 0.00 | 0.00 | 0.00 | 82 | 1006.6 |
| 20260509011530 | 75 | 90 | 1.0 | 3.0 | 0.00 | 0.00 | 0.00 | 82 | 1006.5 |
| 20260509011027 | 75 | 90 | 0.0 | 5.0 | 0.00 | 0.00 | 0.00 | 82 | 1006.5 |
| 20260509010526 | 75 | 90 | 1.0 | 5.0 | 0.00 | 0.00 | 0.00 | 82 | 1006.5 |
| 20260509010039 | 75 | 90 | 0.0 | 4.0 | 0.00 | 0.00 | 0.00 | 81 | 1006.4 |
| 20260509005528 | 75 | 90 | 0.0 | 4.0 | 0.00 | 0.00 | 0.00 | 81 | 1006.5 |
| 20260509005030 | 75 | 90 | 0.0 | 5.0 | 0.00 | 0.00 | 0.00 | 81 | 1006.5 |
| 20260509004529 | 75 | 90 | 1.0 | 7.0 | 0.00 | 0.00 | 0.00 | 81 | 1006.4 |
| 20260509004025 | 75 | 90 | 1.0 | 7.0 | 0.00 | 0.00 | 0.00 | 81 | 1006.4 |
| 20260509003526 | 75 | 165 | 1.0 | 6.0 | 0.00 | 0.00 | 0.00 | 80 | 1006.4 |
| 20260509003026 | 75 | 165 | 2.0 | 6.0 | 0.00 | 0.00 | 0.00 | 80 | 1006.5 |
| 20260509002525 | 75 | 165 | 1.0 | 6.0 | 0.00 | 0.00 | 0.00 | 80 | 1006.6 |
| 20260509002025 | 75 | 165 | 1.0 | 9.0 | 0.00 | 0.00 | 0.00 | 80 | 1006.6 |
| 20260509001525 | 75 | 165 | 4.0 | 11.0 | 0.00 | 0.00 | 0.00 | 80 | 1006.6 |
| 20260509001025 | 75 | 173 | 4.0 | 11.0 | 0.00 | 0.00 | 0.00 | 79 | 1006.6 |
| 20260509000525 | 75 | 136 | 4.0 | 10.0 | 0.00 | 0.00 | 0.00 | 79 | 1006.5 |
| 20260509000025 | 75 | 153 | 3.0 | 13.0 | 0.00 | 0.00 | 0.00 | 79 | 1006.4 |
| 20260508235525 | 75 | 154 | 6.0 | 13.0 | 0.00 | 0.00 | 0.00 | 79 | 1006.4 |
| 20260508235025 | 75 | 179 | 5.0 | 9.0 | 0.00 | 0.00 | 0.00 | 78 | 1006.5 |
| 20260508234525 | 75 | 185 | 4.0 | 12.0 | 0.00 | 0.00 | 0.00 | 78 | 1006.5 |
| 20260508234026 | 75 | 187 | 6.0 | 14.0 | 0.00 | 0.00 | 0.00 | 78 | 1006.4 |
| 20260508233526 | 75 | 153 | 7.0 | 14.0 | 0.00 | 0.00 | 0.00 | 78 | 1006.2 |
| 20260508233023 | 75 | 174 | 3.0 | 15.0 | 0.00 | 0.00 | 0.00 | 78 | 1006.1 |
| 20260508232523 | 75 | 150 | 8.0 | 16.0 | 0.00 | 0.00 | 0.00 | 77 | 1006.1 |
| 20260508232022 | 75 | 157 | 7.0 | 16.0 | 0.00 | 0.00 | 0.00 | 77 | 1006.2 |
| 20260508231522 | 75 | 184 | 7.0 | 12.0 | 0.00 | 0.00 | 0.00 | 77 | 1006.4 |
| 20260508231025 | 75 | 184 | 5.0 | 13.0 | 0.00 | 0.00 | 0.00 | 77 | 1006.4 |
| 20260508230520 | 75 | 170 | 8.0 | 13.0 | 0.00 | 0.00 | 0.00 | 77 | 1006.4 |
| 20260508230034 | 75 | 184 | 7.0 | 14.0 | 0.00 | 0.00 | 0.00 | 77 | 1006.5 |
| 20260508225519 | 75 | 182 | 5.0 | 14.0 | 0.00 | 0.00 | 0.00 | 77 | 1006.6 |
| 20260508225020 | 75 | 176 | 7.0 | 15.0 | 0.00 | 0.00 | 0.00 | 77 | 1006.7 |
| 20260508224526 | 75 | 195 | 7.0 | 15.0 | 0.00 | 0.00 | 0.00 | 77 | 1006.7 |
| 20260508224018 | 75 | 184 | 5.0 | 14.0 | 0.00 | 0.00 | 0.00 | 77 | 1006.7 |
| 20260508223519 | 75 | 176 | 8.0 | 18.0 | 0.00 | 0.00 | 0.00 | 76 | 1006.7 |
| 20260508223018 | 75 | 182 | 9.0 | 18.0 | 0.00 | 0.00 | 0.00 | 76 | 1006.9 |
| 20260508222519 | 75 | 165 | 3.0 | 12.0 | 0.00 | 0.00 | 0.00 | 76 | 1006.9 |
| 20260508222016 | 75 | 160 | 6.0 | 12.0 | 0.00 | 0.00 | 0.00 | 75 | 1007.1 |
| 20260508221534 | 75 | 150 | 4.0 | 11.0 | 0.00 | 0.00 | 0.00 | 75 | 1007.1 |
| 20260508221015 | 75 | 152 | 5.0 | 11.0 | 0.00 | 0.00 | 0.00 | 74 | 1007.2 |
| 20260508220517 | 75 | 143 | 5.0 | 9.0 | 0.00 | 0.00 | 0.00 | 74 | 1007.4 |
| 20260508220013 | 75 | 144 | 5.0 | 9.0 | 0.00 | 0.00 | 0.00 | 73 | 1007.6 |
| 20260508215517 | 75 | 134 | 4.0 | 8.0 | 0.00 | 0.00 | 0.00 | 72 | 1007.7 |
| 20260508215011 | 75 | 136 | 2.0 | 6.0 | 0.00 | 0.00 | 0.00 | 73 | 1007.7 |
| 20260508214510 | 75 | 136 | 1.0 | 6.0 | 0.00 | 0.00 | 0.00 | 72 | 1007.8 |
| 20260508214010 | 75 | 136 | 1.0 | 4.0 | 0.00 | 0.00 | 0.00 | 72 | 1007.9 |
| 20260508213508 | 75 | 136 | 0.0 | 4.0 | 0.00 | 0.00 | 0.00 | 74 | 1008.0 |
| 20260508213015 | 75 | 136 | 1.0 | 4.0 | 0.00 | 0.00 | 0.00 | 74 | 1008.2 |
| 20260508212509 | 74 | 136 | 0.0 | 2.0 | 0.00 | 0.00 | 0.00 | 75 | 1008.2 |
| 20260508212005 | 74 | 136 | 0.0 | 4.0 | 0.00 | 0.00 | 0.00 | 75 | 1008.3 |
| 20260508211505 | 73 | 136 | 0.0 | 4.0 | 0.00 | 0.00 | 0.00 | 75 | 1008.4 |
| 20260508211003 | 73 | 136 | 0.0 | 2.0 | 0.00 | 0.00 | 0.00 | 77 | 1008.5 |
| 20260508210503 | 73 | 136 | 0.0 | 2.0 | 0.00 | 0.00 | 0.00 | 76 | 1008.6 |
| 20260508210002 | 73 | 136 | 1.0 | 6.0 | 0.00 | 0.00 | 0.00 | 76 | 1008.6 |
| 20260508205508 | 73 | 136 | 0.0 | 6.0 | 0.00 | 0.00 | 0.00 | 76 | 1008.6 |
| 20260508205004 | 73 | 136 | 3.0 | 6.0 | 0.00 | 0.00 | 0.00 | 75 | 1008.5 |
| 20260508204503 | 73 | 136 | 3.0 | 5.0 | 0.00 | 0.00 | 0.00 | 75 | 1008.6 |
| 20260508204000 | 73 | 136 | 2.0 | 5.0 | 0.00 | 0.00 | 0.00 | 75 | 1008.8 |
| 20260508203600 | 73 | 136 | 2.0 | 5.0 | 0.00 | 0.00 | 0.00 | 75 | 1008.9 |
| 20260508203104 | 73 | 136 | 0.0 | 2.0 | 0.00 | 0.00 | 0.00 | 75 | 1009.0 |
| 20260508202559 | 73 | 136 | 0.0 | 2.0 | 0.00 | 0.00 | 0.00 | 75 | 1009.1 |
| 20260508202058 | 73 | 136 | 0.0 | 2.0 | 0.00 | 0.00 | 0.00 | 76 | 1009.3 |
| 20260508201557 | 72 | 136 | 0.0 | 2.0 | 0.00 | 0.00 | 0.00 | 76 | 1009.2 |
| 20260508201057 | 72 | 136 | 0.0 | 7.0 | 0.00 | 0.00 | 0.00 | 76 | 1009.2 |
| 20260508200557 | 72 | 136 | 0.0 | 8.0 | 0.00 | 0.00 | 0.00 | 76 | 1009.2 |
| 20260508200100 | 72 | 136 | 4.0 | 10.0 | 0.00 | 0.00 | 0.00 | 75 | 1009.1 |
| 20260508195555 | 72 | 134 | 5.0 | 10.0 | 0.00 | 0.00 | 0.00 | 77 | 1009.0 |
| 20260508195054 | 71 | 113 | 5.0 | 9.0 | 0.00 | 0.00 | 0.00 | 78 | 1008.9 |
| 20260508194554 | 71 | 92 | 2.0 | 5.0 | 0.00 | 0.00 | 0.00 | 79 | 1009.0 |
| 20260508194052 | 71 | 92 | 1.0 | 5.0 | 0.00 | 0.00 | 0.00 | 78 | 1009.2 |
| 20260508193552 | 71 | 92 | 0.0 | 5.0 | 0.00 | 0.00 | 0.00 | 78 | 1009.4 |
| 20260508193057 | 71 | 92 | 2.0 | 6.0 | 0.00 | 0.00 | 0.00 | 77 | 1009.5 |
| 20260508192554 | 70 | 92 | 3.0 | 6.0 | 0.00 | 0.00 | 0.00 | 77 | 1009.3 |
| 20260508192051 | 70 | 91 | 3.0 | 7.0 | 0.00 | 0.00 | 0.00 | 77 | 1009.3 |
| 20260508191555 | 71 | 169 | 2.0 | 7.0 | 0.00 | 0.00 | 0.00 | 76 | 1009.8 |
| 20260508191048 | 71 | 169 | 2.0 | 5.0 | 0.00 | 0.00 | 0.00 | 77 | 1009.7 |
| 20260508190549 | 71 | 169 | 1.0 | 4.0 | 0.00 | 0.00 | 0.00 | 78 | 1009.8 |
| 20260508190051 | 71 | 169 | 1.0 | 4.0 | 0.00 | 0.00 | 0.00 | 75 | 1009.8 |
| 20260508185548 | 71 | 169 | 0.0 | 6.0 | 0.00 | 0.00 | 0.00 | 75 | 1009.8 |
| 20260508185047 | 70 | 169 | 2.0 | 7.0 | 0.00 | 0.00 | 0.00 | 74 | 1010.0 |
| 20260508184547 | 71 | 169 | 2.0 | 8.0 | 0.00 | 0.00 | 0.00 | 75 | 1009.9 |
| 20260508184046 | 71 | 169 | 3.0 | 8.0 | 0.00 | 0.00 | 0.00 | 75 | 1010.2 |
| 20260508183545 | 70 | 169 | 3.0 | 7.0 | 0.00 | 0.00 | 0.00 | 75 | 1010.3 |
| 20260508183044 | 70 | 167 | 2.0 | 8.0 | 0.00 | 0.00 | 0.00 | 75 | 1010.2 |
| 20260508182542 | 70 | 168 | 4.0 | 10.0 | 0.00 | 0.00 | 0.00 | 74 | 1010.4 |
| 20260508182042 | 70 | 166 | 4.0 | 11.0 | 0.00 | 0.00 | 0.00 | 73 | 1010.6 |
| 20260508181543 | 70 | 167 | 5.0 | 11.0 | 0.00 | 0.00 | 0.00 | 73 | 1010.7 |
| 20260508181042 | 70 | 149 | 4.0 | 10.0 | 0.00 | 0.00 | 0.00 | 73 | 1010.7 |
| 20260508180542 | 70 | 145 | 5.0 | 12.0 | 0.00 | 0.00 | 0.00 | 72 | 1010.7 |
| 20260508180042 | 70 | 130 | 4.0 | 13.0 | 0.00 | 0.00 | 0.00 | 71 | 1010.7 |
| 20260508175542 | 71 | 142 | 7.0 | 13.0 | 0.00 | 0.00 | 0.00 | 71 | 1010.7 |
| 20260508175045 | 71 | 129 | 5.0 | 11.0 | 0.00 | 0.00 | 0.00 | 72 | 1010.8 |
| 20260508174541 | 71 | 125 | 6.0 | 13.0 | 0.00 | 0.00 | 0.00 | 72 | 1010.6 |
| 20260508174039 | 70 | 137 | 7.0 | 13.0 | 0.00 | 0.00 | 0.00 | 72 | 1010.6 |
| 20260508173538 | 70 | 146 | 3.0 | 11.0 | 0.00 | 0.00 | 0.00 | 73 | 1010.8 |
| 20260508173036 | 70 | 146 | 5.0 | 11.0 | 0.00 | 0.00 | 0.00 | 72 | 1011.0 |
| 20260508172536 | 70 | 145 | 6.0 | 11.0 | 0.00 | 0.00 | 0.00 | 73 | 1011.2 |
| 20260508172034 | 70 | 138 | 3.0 | 11.0 | 0.00 | 0.00 | 0.00 | 74 | 1011.1 |
| 20260508171533 | 70 | 137 | 5.0 | 12.0 | 0.00 | 0.00 | 0.00 | 73 | 1011.1 |
| 20260508171031 | 70 | 138 | 6.0 | 12.0 | 0.00 | 0.00 | 0.00 | 73 | 1011.2 |
| 20260508170531 | 70 | 130 | 6.0 | 10.0 | 0.00 | 0.00 | 0.00 | 73 | 1011.5 |
| 20260508170030 | 70 | 129 | 6.0 | 10.0 | 0.00 | 0.00 | 0.00 | 73 | 1011.6 |
| 20260508165531 | 70 | 128 | 4.0 | 10.0 | 0.00 | 0.00 | 0.00 | 73 | 1011.6 |
| 20260508165030 | 70 | 126 | 4.0 | 10.0 | 0.00 | 0.00 | 0.00 | 72 | 1011.7 |
| 20260508164534 | 69 | 123 | 5.0 | 12.0 | 0.00 | 0.00 | 0.00 | 72 | 1011.8 |
| 20260508164028 | 69 | 122 | 5.0 | 12.0 | 0.00 | 0.00 | 0.00 | 72 | 1011.9 |
| 20260508163525 | 69 | 126 | 4.0 | 11.0 | 0.00 | 0.00 | 0.00 | 73 | 1012.0 |
| 20260508163024 | 69 | 123 | 6.0 | 11.0 | 0.00 | 0.00 | 0.00 | 73 | 1011.9 |
| 20260508162523 | 69 | 126 | 7.0 | 11.0 | 0.00 | 0.00 | 0.00 | 73 | 1012.0 |
| 20260508162023 | 69 | 114 | 5.0 | 8.0 | 0.00 | 0.00 | 0.00 | 74 | 1012.0 |
| 20260508161521 | 68 | 114 | 5.0 | 7.0 | 0.00 | 0.00 | 0.00 | 75 | 1012.3 |
| 20260508161021 | 68 | 114 | 4.0 | 7.0 | 0.00 | 0.00 | 0.00 | 76 | 1012.3 |
| 20260508160519 | 68 | 114 | 3.0 | 8.0 | 0.00 | 0.00 | 0.00 | 76 | 1012.4 |
| 20260508160024 | 68 | 114 | 3.0 | 8.0 | 0.00 | 0.00 | 0.00 | 76 | 1012.4 |
| 20260508155522 | 68 | 113 | 4.0 | 8.0 | 0.00 | 0.00 | 0.00 | 76 | 1012.4 |
| 20260508155018 | 68 | 114 | 5.0 | 10.0 | 0.00 | 0.00 | 0.00 | 75 | 1012.5 |
| 20260508154518 | 68 | 114 | 7.0 | 10.0 | 0.00 | 0.00 | 0.00 | 76 | 1012.6 |
| 20260508154016 | 67 | 103 | 2.0 | 7.0 | 0.00 | 0.00 | 0.00 | 79 | 1012.6 |
| 20260508153518 | 67 | 102 | 3.0 | 7.0 | 0.00 | 0.00 | 0.00 | 78 | 1012.5 |
| 20260508153014 | 67 | 102 | 2.0 | 7.0 | 0.00 | 0.00 | 0.00 | 79 | 1012.6 |
| 20260508152512 | 67 | 102 | 5.0 | 7.0 | 0.00 | 0.00 | 0.00 | 80 | 1012.7 |
| 20260508152011 | 66 | 102 | 3.0 | 8.0 | 0.00 | 0.00 | 0.00 | 80 | 1012.7 |
| 20260508151511 | 66 | 102 | 4.0 | 8.0 | 0.00 | 0.00 | 0.00 | 80 | 1012.7 |
| 20260508151011 | 66 | 102 | 3.0 | 6.0 | 0.00 | 0.00 | 0.00 | 81 | 1012.8 |
| 20260508150510 | 66 | 102 | 2.0 | 6.0 | 0.00 | 0.00 | 0.00 | 81 | 1012.8 |
| 20260508150010 | 66 | 102 | 1.0 | 5.0 | 0.00 | 0.00 | 0.00 | 82 | 1012.9 |
| 20260508145512 | 66 | 102 | 2.0 | 6.0 | 0.00 | 0.00 | 0.00 | 81 | 1012.8 |
| 20260508145010 | 66 | 102 | 2.0 | 6.0 | 0.00 | 0.00 | 0.00 | 82 | 1012.7 |
| 20260508144509 | 65 | 102 | 2.0 | 5.0 | 0.00 | 0.00 | 0.00 | 81 | 1012.7 |
| 20260508144008 | 65 | 102 | 2.0 | 6.0 | 0.00 | 0.00 | 0.00 | 82 | 1012.7 |
| 20260508143508 | 65 | 102 | 2.0 | 6.0 | 0.00 | 0.00 | 0.00 | 82 | 1012.8 |
| 20260508143007 | 65 | 103 | 2.0 | 5.0 | 0.00 | 0.00 | 0.00 | 82 | 1012.7 |
| 20260508142507 | 65 | 102 | 1.0 | 3.0 | 0.00 | 0.00 | 0.00 | 82 | 1012.7 |
| 20260508142006 | 65 | 103 | 2.0 | 3.0 | 0.00 | 0.00 | 0.00 | 82 | 1012.7 |
| 20260508141505 | 65 | 103 | 0.0 | 5.0 | 0.00 | 0.00 | 0.00 | 83 | 1012.7 |
| 20260508141004 | 64 | 102 | 2.0 | 5.0 | 0.00 | 0.00 | 0.00 | 82 | 1012.7 |
| 20260508140503 | 64 | 103 | 2.0 | 5.0 | 0.00 | 0.00 | 0.00 | 83 | 1012.9 |
| 20260508140003 | 64 | 103 | 0.0 | 4.0 | 0.00 | 0.00 | 0.00 | 84 | 1012.9 |
| 20260508135502 | 63 | 102 | 1.0 | 5.0 | 0.00 | 0.00 | 0.00 | 85 | 1012.8 |
| 20260508135001 | 63 | 102 | 1.0 | 5.0 | 0.00 | 0.00 | 0.00 | 86 | 1012.7 |
| 20260508134601 | 63 | 102 | 0.0 | 3.0 | 0.00 | 0.00 | 0.00 | 86 | 1012.8 |
| 20260508134059 | 62 | 102 | 1.0 | 3.0 | 0.00 | 0.00 | 0.00 | 86 | 1012.8 |
| 20260508133558 | 62 | 103 | 0.0 | 3.0 | 0.00 | 0.00 | 0.00 | 88 | 1012.9 |
| 20260508133100 | 62 | 102 | 0.0 | 5.0 | 0.00 | 0.00 | 0.00 | 89 | 1012.8 |
| 20260508132554 | 62 | 102 | 2.0 | 5.0 | 0.00 | 0.00 | 0.00 | 89 | 1012.8 |
| 20260508132055 | 61 | 102 | 2.0 | 6.0 | 0.00 | 0.00 | 0.00 | 90 | 1012.7 |
| 20260508131559 | 61 | 102 | 4.0 | 6.0 | 0.00 | 0.00 | 0.00 | 91 | 1012.7 |
| 20260508131055 | 61 | 102 | 0.0 | 2.0 | 0.00 | 0.00 | 0.00 | 92 | 1012.8 |
| 20260508130555 | 60 | 103 | 0.0 | 5.0 | 0.00 | 0.00 | 0.00 | 93 | 1012.8 |
| 20260508130109 | 60 | 102 | 1.0 | 5.0 | 0.00 | 0.00 | 0.00 | 93 | 1012.9 |
| 20260508125553 | 60 | 103 | 1.0 | 5.0 | 0.00 | 0.00 | 0.00 | 94 | 1012.9 |
| 20260508125052 | 59 | 102 | 2.0 | 5.0 | 0.00 | 0.00 | 0.00 | 94 | 1012.9 |
| 20260508124552 | 59 | 103 | 0.0 | 4.0 | 0.00 | 0.00 | 0.00 | 94 | 1013.0 |
| 20260508124052 | 58 | 103 | 1.0 | 4.0 | 0.00 | 0.00 | 0.00 | 94 | 1013.0 |
| 20260508123552 | 58 | 102 | 1.0 | 4.0 | 0.00 | 0.00 | 0.00 | 94 | 1013.0 |
| 20260508123048 | 58 | 102 | 1.0 | 4.0 | 0.00 | 0.00 | 0.00 | 94 | 1013.0 |
| 20260508122547 | 58 | 103 | 1.0 | 2.0 | 0.00 | 0.00 | 0.00 | 94 | 1012.7 |
| 20260508122045 | 57 | 103 | 0.0 | 2.0 | 0.00 | 0.00 | 0.00 | 94 | 1012.5 |
| 20260508121556 | 57 | 102 | 0.0 | 2.0 | 0.00 | 0.00 | 0.00 | 93 | 1012.6 |
| 20260508121043 | 57 | 102 | 0.0 | 5.0 | 0.00 | 0.00 | 0.00 | 93 | 1012.5 |
| 20260508120542 | 57 | 102 | 0.0 | 5.0 | 0.00 | 0.00 | 0.00 | 93 | 1012.2 |
| 20260508120040 | 57 | 102 | 3.0 | 5.0 | 0.00 | 0.00 | 0.00 | 93 | 1011.9 |
| 20260508115540 | 57 | 102 | 3.0 | 6.0 | 0.00 | 0.00 | 0.00 | 93 | 1012.1 |
| 20260508115039 | 57 | 102 | 3.0 | 6.0 | 0.00 | 0.00 | 0.00 | 93 | 1012.2 |
| 20260508114538 | 58 | 102 | 3.0 | 6.0 | 0.00 | 0.00 | 0.00 | 92 | 1012.3 |
| 20260508114039 | 58 | 103 | 1.0 | 4.0 | 0.00 | 0.00 | 0.00 | 92 | 1012.6 |
| 20260508113537 | 58 | 103 | 1.0 | 3.0 | 0.00 | 0.00 | 0.00 | 93 | 1012.7 |
| 20260508113041 | 58 | 103 | 1.0 | 2.0 | 0.00 | 0.00 | 0.00 | 93 | 1012.5 |
| 20260508112536 | 58 | 103 | 1.0 | 4.0 | 0.00 | 0.00 | 0.00 | 93 | 1012.5 |
| 20260508112036 | 58 | 103 | 0.0 | 4.0 | 0.00 | 0.00 | 0.00 | 93 | 1012.6 |
| 20260508111536 | 58 | 103 | 1.0 | 7.0 | 0.00 | 0.00 | 0.00 | 93 | 1012.6 |
| 20260508111036 | 58 | 103 | 1.0 | 7.0 | 0.00 | 0.00 | 0.00 | 93 | 1012.6 |
| 20260508110536 | 58 | 103 | 3.0 | 7.0 | 0.00 | 0.00 | 0.00 | 93 | 1012.4 |
| 20260508110036 | 58 | 102 | 4.0 | 7.0 | 0.00 | 0.00 | 0.00 | 93 | 1012.3 |
| 20260508105538 | 58 | 102 | 3.0 | 8.0 | 0.00 | 0.00 | 0.00 | 93 | 1012.5 |
| 20260508105038 | 58 | 101 | 5.0 | 8.0 | 0.00 | 0.00 | 0.00 | 93 | 1012.5 |
| 20260508104559 | 58 | 98 | 6.0 | 8.0 | 0.00 | 0.00 | 0.00 | 93 | 1012.7 |
| 20260508104032 | 58 | 83 | 5.0 | 8.0 | 0.00 | 0.00 | 0.00 | 93 | 1012.7 |
| 20260508103532 | 58 | 72 | 2.0 | 5.0 | 0.00 | 0.00 | 0.00 | 93 | 1013.0 |
| 20260508103041 | 58 | 71 | 0.0 | 2.0 | 0.00 | 0.00 | 0.00 | 93 | 1013.0 |
| 20260508102531 | 58 | 71 | 0.0 | 4.0 | 0.00 | 0.00 | 0.00 | 93 | 1013.1 |
| 20260508102031 | 58 | 71 | 0.0 | 5.0 | 0.00 | 0.00 | 0.00 | 93 | 1013.1 |
| 20260508101531 | 58 | 71 | 2.0 | 5.0 | 0.00 | 0.00 | 0.00 | 93 | 1013.0 |